createdAt,value
2018-08-20T00:02:00.360Z,8.87
2018-08-20T00:04:34.562Z,7.90
2018-08-20T00:07:03.506Z,8.40
2018-08-20T00:09:37.834Z,7.97
2018-08-20T00:12:07.988Z,9.23
2018-08-20T00:14:36.734Z,6.97
2018-08-20T00:17:05.457Z,8.33
2018-08-20T00:19:34.005Z,8.90
2018-08-20T00:22:02.555Z,8.70
2018-08-20T00:24:31.125Z,7.50
2018-08-20T00:27:01.746Z,7.70
2018-08-20T00:29:30.393Z,8.33
2018-08-20T00:31:58.937Z,9.57
2018-08-20T00:34:27.466Z,8.40
2018-08-20T00:36:56.015Z,10.57
2018-08-20T00:39:24.527Z,9.60
2018-08-20T00:41:53.073Z,11.10
2018-08-20T00:44:21.594Z,10.67
2018-08-20T00:46:50.156Z,7.37
2018-08-20T00:49:18.660Z,8.70
2018-08-20T00:51:47.681Z,8.30
2018-08-20T00:54:16.181Z,8.70
2018-08-20T00:56:44.717Z,10.10
2018-08-20T00:59:13.257Z,9.70
2018-08-20T01:01:41.782Z,9.17
2018-08-20T01:04:10.282Z,9.77
2018-08-20T01:06:38.817Z,11.13
2018-08-20T01:09:08.768Z,9.40
2018-08-20T01:11:37.885Z,7.73
2018-08-20T01:14:06.562Z,11.67
2018-08-20T01:16:35.097Z,7.60
2018-08-20T01:19:03.656Z,9.43
2018-08-20T01:21:32.188Z,8.73
2018-08-20T01:24:00.805Z,11.07
2018-08-20T01:26:29.572Z,9.07
2018-08-20T01:28:58.098Z,7.80
2018-08-20T01:31:26.621Z,8.03
2018-08-20T01:33:55.221Z,8.00
2018-08-20T01:36:23.756Z,9.37
2018-08-20T01:38:52.297Z,7.57
2018-08-20T01:41:20.818Z,10.33
2018-08-20T01:43:49.357Z,7.77
2018-08-20T01:46:17.869Z,7.33
2018-08-20T01:48:46.417Z,10.20
2018-08-20T01:51:15.038Z,10.53
2018-08-20T01:53:43.574Z,7.90
2018-08-20T01:56:12.180Z,7.57
2018-08-20T01:58:40.794Z,11.57
2018-08-20T02:01:09.757Z,8.40
2018-08-20T02:03:38.361Z,8.97
2018-08-20T02:06:06.902Z,9.03
2018-08-20T02:08:35.533Z,9.13
2018-08-20T02:11:04.147Z,11.30
2018-08-20T02:13:32.787Z,8.97
2018-08-20T02:16:01.305Z,8.43
2018-08-20T02:18:29.897Z,10.07
2018-08-20T02:20:58.458Z,9.60
2018-08-20T02:23:27.013Z,8.67
2018-08-20T02:25:55.562Z,10.23
2018-08-20T02:28:24.113Z,10.60
2018-08-20T02:30:52.613Z,9.87
2018-08-20T02:33:21.159Z,13.63
2018-08-20T02:35:49.950Z,8.30
2018-08-20T02:38:18.525Z,7.63
2018-08-20T02:40:47.092Z,9.03
2018-08-20T02:43:15.694Z,9.23
2018-08-20T02:45:44.281Z,8.40
2018-08-20T02:48:12.841Z,10.23
2018-08-20T02:50:41.364Z,8.13
2018-08-20T02:53:09.995Z,8.83
2018-08-20T02:55:38.534Z,9.87
2018-08-20T02:58:07.098Z,8.53
2018-08-20T03:00:35.680Z,7.67
2018-08-20T03:03:05.014Z,8.77
2018-08-20T03:05:34.138Z,8.63
2018-08-20T03:08:02.793Z,9.97
2018-08-20T03:10:31.332Z,9.77
2018-08-20T03:13:00.161Z,8.80
2018-08-20T03:15:28.706Z,11.57
2018-08-20T03:17:57.289Z,9.23
2018-08-20T03:20:25.817Z,9.00
2018-08-20T03:22:54.442Z,6.63
2018-08-20T03:25:22.984Z,8.60
2018-08-20T03:27:51.555Z,9.00
2018-08-20T03:30:20.142Z,9.97
2018-08-20T03:32:48.728Z,9.13
2018-08-20T03:35:17.309Z,9.60
2018-08-20T03:37:45.848Z,9.83
2018-08-20T03:40:14.434Z,8.13
2018-08-20T03:42:43.547Z,8.20
2018-08-20T03:45:12.165Z,10.83
2018-08-20T03:47:40.751Z,10.83
2018-08-20T03:50:11.962Z,9.43
2018-08-20T03:52:40.579Z,10.77
2018-08-20T03:55:09.193Z,11.37
2018-08-20T03:57:38.352Z,7.17
2018-08-20T04:00:08.249Z,8.23
2018-08-20T04:02:36.755Z,9.20
2018-08-20T04:05:05.675Z,12.17
2018-08-20T04:07:34.239Z,9.80
2018-08-20T04:10:02.810Z,10.07
2018-08-20T04:12:31.312Z,10.47
2018-08-20T04:14:59.846Z,10.00
2018-08-20T04:17:28.362Z,10.97
2018-08-20T04:19:56.966Z,7.83
2018-08-20T04:22:25.497Z,7.93
2018-08-20T04:24:54.050Z,9.23
2018-08-20T04:27:22.571Z,9.63
2018-08-20T04:29:51.145Z,11.10
2018-08-20T04:32:19.667Z,9.13
2018-08-20T04:34:48.214Z,9.07
2018-08-20T04:37:16.741Z,8.77
2018-08-20T04:39:45.314Z,9.67
2018-08-20T04:42:13.972Z,9.93
2018-08-20T04:44:42.426Z,8.10
2018-08-20T04:47:10.950Z,12.07
2018-08-20T04:49:39.491Z,11.87
2018-08-20T04:52:08.015Z,10.63
2018-08-20T04:54:36.653Z,10.30
2018-08-20T04:57:05.311Z,12.57
2018-08-20T04:59:33.904Z,11.03
2018-08-20T05:02:02.442Z,9.60
2018-08-20T05:04:30.977Z,8.63
2018-08-20T05:06:59.518Z,9.20
2018-08-20T05:09:28.067Z,8.17
2018-08-20T05:11:56.602Z,11.27
2018-08-20T05:14:25.146Z,8.73
2018-08-20T05:16:53.686Z,11.73
2018-08-20T05:19:22.563Z,12.23
2018-08-20T05:21:51.173Z,10.43
2018-08-20T05:24:19.721Z,8.80
2018-08-20T05:26:48.342Z,11.73
2018-08-20T05:29:16.934Z,8.50
2018-08-20T05:31:45.729Z,12.47
2018-08-20T05:34:14.282Z,7.90
2018-08-20T05:36:42.918Z,9.53
2018-08-20T05:39:12.401Z,10.20
2018-08-20T05:41:40.984Z,9.40
2018-08-20T05:44:09.576Z,8.90
2018-08-20T05:46:39.453Z,12.63
2018-08-20T05:49:08.772Z,12.17
2018-08-20T05:51:38.834Z,8.80
2018-08-20T05:54:07.446Z,9.73
2018-08-20T05:56:36.157Z,10.40
2018-08-20T05:59:04.824Z,10.73
2018-08-20T06:01:34.696Z,12.27
2018-08-20T06:04:08.040Z,11.13
2018-08-20T06:06:36.977Z,8.53
2018-08-20T06:09:08.653Z,9.07
2018-08-20T06:11:37.238Z,12.23
2018-08-20T06:14:05.960Z,9.60
2018-08-20T06:16:34.738Z,8.67
2018-08-20T06:19:03.595Z,11.40
2018-08-20T06:21:33.065Z,10.30
2018-08-20T06:24:02.808Z,11.53
2018-08-20T06:26:31.540Z,9.03
2018-08-20T06:29:00.186Z,10.90
2018-08-20T06:31:33.722Z,9.47
2018-08-20T06:34:05.954Z,9.93
2018-08-20T06:36:34.886Z,12.30
2018-08-20T06:39:04.916Z,13.40
2018-08-20T06:41:43.247Z,11.37
2018-08-20T06:44:12.394Z,9.17
2018-08-20T06:46:43.268Z,12.30
2018-08-20T06:49:11.881Z,9.00
2018-08-20T06:51:40.572Z,8.70
2018-08-20T06:54:09.208Z,9.90
2018-08-20T06:56:37.882Z,16.63
2018-08-20T06:59:11.644Z,8.23
2018-08-20T07:01:40.614Z,10.30
2018-08-20T07:04:09.605Z,16.67
2018-08-20T07:06:38.178Z,14.50
2018-08-20T07:09:07.586Z,11.37
2018-08-20T07:11:36.348Z,11.03
2018-08-20T07:14:05.065Z,9.83
2018-08-20T07:16:33.766Z,11.37
2018-08-20T07:19:02.362Z,11.63
2018-08-20T07:21:30.961Z,12.77
2018-08-20T07:24:00.515Z,10.23
2018-08-20T07:26:29.126Z,9.93
2018-08-20T07:28:57.669Z,12.90
2018-08-20T07:31:26.277Z,10.90
2018-08-20T07:33:59.440Z,14.53
2018-08-20T07:36:28.253Z,9.23
2018-08-20T07:38:57.184Z,10.80
2018-08-20T07:41:25.889Z,13.07
2018-08-20T07:43:54.466Z,10.70
2018-08-20T07:46:23.059Z,10.77
2018-08-20T07:48:51.706Z,17.03
2018-08-20T07:51:20.302Z,14.53
2018-08-20T07:53:48.907Z,10.47
2018-08-20T07:56:17.626Z,11.87
2018-08-20T07:58:46.237Z,10.90
2018-08-20T08:01:18.848Z,9.50
2018-08-20T08:03:47.581Z,9.37
2018-08-20T08:06:16.214Z,12.93
2018-08-20T08:08:44.945Z,9.53
2018-08-20T08:11:13.591Z,14.73
2018-08-20T08:13:42.207Z,11.30
2018-08-20T08:16:10.866Z,11.33
2018-08-20T08:18:39.537Z,11.83
2018-08-20T08:21:08.182Z,10.80
2018-08-20T08:23:43.270Z,9.37
2018-08-20T08:26:11.840Z,11.10
2018-08-20T08:28:40.425Z,11.87
2018-08-20T08:31:09.007Z,10.07
2018-08-20T08:33:37.721Z,12.40
2018-08-20T08:36:10.047Z,9.83
2018-08-20T08:38:40.745Z,12.87
2018-08-20T08:41:09.342Z,14.20
2018-08-20T08:43:38.028Z,10.47
2018-08-20T08:46:06.822Z,8.53
2018-08-20T08:48:35.495Z,14.77
2018-08-20T08:51:04.117Z,10.10
2018-08-20T08:53:32.803Z,10.43
2018-08-20T08:58:33.530Z,10.97
2018-08-20T09:01:02.120Z,13.33
2018-08-20T09:03:31.685Z,10.83
2018-08-20T09:06:01.479Z,10.37
2018-08-20T09:08:30.159Z,13.87
2018-08-20T09:11:01.289Z,9.80
2018-08-20T09:13:29.993Z,9.90
2018-08-20T09:15:58.597Z,12.23
2018-08-20T09:18:27.154Z,9.43
2018-08-20T09:20:55.706Z,12.00
2018-08-20T09:23:26.672Z,8.13
2018-08-20T09:25:55.258Z,8.33
2018-08-20T09:28:23.836Z,13.23
2018-08-20T09:30:52.375Z,14.03
2018-08-20T09:33:20.974Z,9.70
2018-08-20T09:35:49.585Z,9.60
2018-08-20T09:38:18.314Z,12.47
2018-08-20T09:40:46.889Z,10.40
2018-08-20T09:43:15.425Z,10.70
2018-08-20T09:45:44.001Z,10.93
2018-08-20T09:48:12.577Z,6.80
2018-08-20T09:50:41.125Z,9.90
2018-08-20T09:53:09.781Z,13.00
2018-08-20T09:55:39.211Z,6.83
2018-08-20T09:58:07.821Z,8.50
2018-08-20T10:00:39.464Z,8.87
2018-08-20T10:03:09.025Z,9.87
2018-08-20T10:05:37.592Z,7.53
2018-08-20T10:08:06.426Z,10.90
2018-08-20T10:10:36.552Z,7.67
2018-08-20T10:13:05.146Z,10.37
2018-08-20T10:15:33.807Z,7.80
2018-08-20T10:18:03.119Z,10.60
2018-08-20T10:20:31.657Z,10.13
2018-08-20T10:23:00.258Z,9.73
2018-08-20T10:25:28.809Z,9.10
2018-08-20T10:27:57.388Z,7.77
2018-08-20T10:30:26.266Z,5.80
2018-08-20T10:32:54.810Z,6.43
2018-08-20T10:35:23.377Z,9.10
2018-08-20T10:37:55.256Z,7.70
2018-08-20T10:40:25.643Z,5.43
2018-08-20T10:42:55.017Z,4.37
2018-08-20T10:45:28.955Z,4.83
2018-08-20T10:47:57.817Z,5.73
2018-08-20T10:50:26.356Z,7.00
2018-08-20T10:52:54.937Z,5.33
2018-08-20T10:55:23.494Z,5.07
2018-08-20T10:57:52.450Z,4.07
2018-08-20T11:00:21.240Z,4.20
2018-08-20T11:02:50.539Z,4.50
2018-08-20T11:05:19.779Z,4.57
2018-08-20T11:07:48.936Z,5.60
2018-08-20T11:10:17.545Z,4.47
2018-08-20T11:12:46.206Z,7.43
2018-08-20T11:15:14.860Z,3.37
2018-08-20T11:17:43.448Z,5.83
2018-08-20T11:20:14.965Z,5.33
2018-08-20T11:22:43.829Z,4.80
2018-08-20T11:25:13.145Z,5.47
2018-08-20T11:27:41.847Z,6.23
2018-08-20T11:30:12.864Z,4.53
2018-08-20T11:32:41.553Z,9.13
2018-08-20T11:35:10.721Z,6.77
2018-08-20T11:37:39.575Z,6.90
2018-08-20T11:40:09.083Z,4.90
2018-08-20T11:42:37.733Z,5.30
2018-08-20T11:45:08.309Z,3.83
2018-08-20T11:47:37.520Z,6.83
2018-08-20T11:50:06.515Z,4.93
2018-08-20T11:52:35.118Z,4.80
2018-08-20T11:55:03.734Z,4.70
2018-08-20T11:57:32.377Z,4.07
2018-08-20T12:00:05.959Z,5.47
2018-08-20T12:02:34.610Z,4.97
2018-08-20T12:05:03.217Z,5.43
2018-08-20T12:07:31.783Z,4.73
2018-08-20T12:10:00.400Z,4.77
2018-08-20T12:12:29.670Z,6.53
2018-08-20T12:14:58.317Z,5.00
2018-08-20T12:17:26.898Z,5.47
2018-08-20T12:19:55.582Z,5.83
2018-08-20T12:22:24.141Z,4.60
2018-08-20T12:24:52.793Z,6.57
2018-08-20T12:27:21.334Z,4.67
2018-08-20T12:29:49.947Z,7.63
2018-08-20T12:32:18.469Z,3.97
2018-08-20T12:34:47.647Z,5.27
2018-08-20T12:37:16.208Z,5.63
2018-08-20T12:39:44.894Z,7.87
2018-08-20T12:42:13.422Z,5.00
2018-08-20T12:44:42.005Z,7.10
2018-08-20T12:47:10.637Z,5.00
2018-08-20T12:49:39.260Z,6.30
2018-08-20T12:52:08.284Z,5.53
2018-08-20T12:54:37.045Z,4.67
2018-08-20T12:57:06.395Z,4.53
2018-08-20T12:59:35.030Z,4.77
2018-08-20T13:02:03.640Z,4.47
2018-08-20T13:04:32.242Z,5.43
2018-08-20T13:07:01.062Z,5.47
2018-08-20T13:09:29.627Z,6.77
2018-08-20T13:11:58.736Z,6.27
2018-08-20T13:14:31.664Z,6.53
2018-08-20T13:17:00.312Z,4.57
2018-08-20T13:19:34.078Z,4.63
2018-08-20T13:22:03.054Z,5.23
2018-08-20T13:24:31.613Z,4.63
2018-08-20T13:27:00.179Z,3.97
2018-08-20T13:29:29.090Z,6.67
2018-08-20T13:31:57.689Z,4.63
2018-08-20T13:34:26.369Z,6.20
2018-08-20T13:36:55.112Z,7.43
2018-08-20T13:39:23.834Z,4.50
2018-08-20T13:41:52.486Z,3.93
2018-08-20T13:44:21.270Z,4.33
2018-08-20T13:46:49.889Z,3.57
2018-08-20T13:49:18.737Z,3.67
2018-08-20T13:51:47.382Z,10.07
2018-08-20T13:54:16.130Z,4.63
2018-08-20T13:56:44.782Z,3.83
2018-08-20T13:59:13.447Z,6.70
2018-08-20T14:01:42.111Z,4.83
2018-08-20T14:04:10.790Z,5.83
2018-08-20T14:06:39.668Z,5.40
2018-08-20T14:09:09.942Z,3.63
2018-08-20T14:11:38.509Z,5.67
2018-08-20T14:14:08.370Z,6.63
2018-08-20T14:16:37.113Z,4.97
2018-08-20T14:19:06.002Z,4.73
2018-08-20T14:21:34.584Z,2.87
2018-08-20T14:24:03.409Z,6.97
2018-08-20T14:26:32.037Z,5.50
2018-08-20T14:29:00.633Z,4.40
2018-08-20T14:31:29.194Z,5.77
2018-08-20T14:33:57.735Z,3.43
2018-08-20T14:36:26.405Z,2.97
2018-08-20T14:38:54.887Z,6.03
2018-08-20T14:41:23.458Z,6.47
2018-08-20T14:43:52.023Z,6.30
2018-08-20T14:46:21.265Z,3.97
2018-08-20T14:48:50.516Z,3.20
2018-08-20T14:51:19.126Z,3.23
2018-08-20T14:53:47.725Z,3.07
2018-08-20T14:56:16.323Z,3.00
2018-08-20T14:58:45.035Z,3.13
2018-08-20T15:01:13.651Z,2.67
2018-08-20T15:03:42.231Z,2.37
2018-08-20T15:06:10.849Z,2.47
2018-08-20T15:08:40.322Z,4.67
2018-08-20T15:11:09.029Z,2.10
2018-08-20T15:13:37.600Z,4.13
2018-08-20T15:16:06.257Z,2.30
2018-08-20T15:18:34.746Z,7.00
2018-08-20T15:21:03.333Z,2.07
2018-08-20T15:23:31.866Z,3.50
2018-08-20T15:26:00.435Z,2.77
2018-08-20T15:28:28.990Z,3.07
2018-08-20T15:30:57.610Z,1.83
2018-08-20T15:33:27.022Z,2.37
2018-08-20T15:35:55.666Z,2.97
2018-08-20T15:38:24.236Z,2.83
2018-08-20T15:40:52.784Z,2.40
2018-08-20T15:43:23.238Z,2.67
2018-08-20T15:45:51.794Z,2.57
2018-08-20T15:48:20.447Z,5.37
2018-08-20T15:50:48.978Z,1.77
2018-08-20T15:53:17.546Z,4.40
2018-08-20T15:55:46.318Z,2.47
2018-08-20T15:58:15.110Z,1.77
2018-08-20T16:00:43.718Z,2.70
2018-08-20T16:03:12.307Z,3.50
2018-08-20T16:05:40.873Z,5.30
2018-08-20T16:10:43.641Z,4.70
2018-08-20T16:13:12.197Z,2.73
2018-08-20T16:15:40.726Z,2.10
2018-08-20T16:18:09.467Z,3.00
2018-08-20T16:20:38.018Z,3.00
2018-08-20T16:23:07.570Z,5.50
2018-08-20T16:25:36.590Z,3.93
2018-08-20T16:28:05.386Z,3.63
2018-08-20T16:30:33.954Z,3.57
2018-08-20T16:33:02.555Z,7.13
2018-08-20T16:35:31.121Z,2.43
2018-08-20T16:37:59.724Z,1.67
2018-08-20T16:40:28.336Z,2.70
2018-08-20T16:42:56.946Z,3.67
2018-08-20T16:45:25.552Z,3.17
2018-08-20T16:47:54.205Z,1.93
2018-08-20T16:50:22.772Z,2.43
2018-08-20T16:52:51.398Z,1.57
2018-08-20T16:55:20.025Z,2.50
2018-08-20T16:57:48.626Z,1.60
2018-08-20T17:00:17.218Z,2.80
2018-08-20T17:02:45.809Z,3.03
2018-08-20T17:05:14.866Z,5.40
2018-08-20T17:07:43.413Z,5.23
2018-08-20T17:10:13.128Z,5.63
2018-08-20T17:12:42.366Z,2.97
2018-08-20T17:15:16.537Z,4.90
2018-08-20T17:17:45.102Z,4.30
2018-08-20T17:20:14.025Z,2.17
2018-08-20T17:22:43.162Z,1.70
2018-08-20T17:25:11.757Z,2.13
2018-08-20T17:27:40.629Z,1.73
2018-08-20T17:30:09.707Z,2.77
2018-08-20T17:32:38.269Z,5.50
2018-08-20T17:35:08.719Z,4.47
2018-08-20T17:37:37.294Z,1.50
2018-08-20T17:40:08.593Z,2.53
2018-08-20T17:42:37.217Z,3.03
2018-08-20T17:45:07.392Z,3.50
2018-08-20T17:47:38.821Z,2.17
2018-08-20T17:50:17.276Z,2.90
2018-08-20T17:52:45.866Z,2.13
2018-08-20T17:55:14.463Z,5.70
2018-08-20T17:57:42.986Z,4.50
2018-08-20T18:00:24.173Z,2.30
2018-08-20T18:02:53.782Z,2.80
2018-08-20T18:05:23.884Z,3.60
2018-08-20T18:07:53.216Z,3.50
2018-08-20T18:10:21.881Z,3.20
2018-08-20T18:12:50.573Z,3.27
2018-08-20T18:15:19.645Z,4.47
2018-08-20T18:17:48.337Z,2.37
2018-08-20T18:20:17.067Z,6.23
2018-08-20T18:22:45.634Z,3.90
2018-08-20T18:25:14.217Z,2.80
2018-08-20T18:27:43.595Z,2.33
2018-08-20T18:30:13.747Z,4.20
2018-08-20T18:32:42.281Z,3.07
2018-08-20T18:35:10.918Z,2.60
2018-08-20T18:37:44.699Z,1.90
2018-08-20T18:40:13.346Z,2.50
2018-08-20T18:42:47.264Z,3.20
2018-08-20T18:45:15.890Z,4.00
2018-08-20T18:47:44.472Z,5.03
2018-08-20T18:50:13.096Z,2.67
2018-08-20T18:52:41.645Z,2.93
2018-08-20T18:55:10.270Z,2.43
2018-08-20T18:57:39.105Z,6.20
2018-08-20T19:00:12.819Z,2.40
2018-08-20T19:02:49.284Z,2.90
2018-08-20T19:05:18.626Z,3.27
2018-08-20T19:07:47.566Z,2.23
2018-08-20T19:10:29.192Z,3.53
2018-08-20T19:12:57.801Z,4.90
2018-08-20T19:15:46.621Z,4.33
2018-08-20T19:18:20.415Z,4.57
2018-08-20T19:20:49.054Z,1.90
2018-08-20T19:23:17.569Z,5.50
2018-08-20T19:25:46.179Z,6.00
2018-08-20T19:28:21.097Z,3.13
2018-08-20T19:30:50.642Z,2.10
2018-08-20T19:33:22.987Z,2.87
2018-08-20T19:35:52.303Z,2.30
2018-08-20T19:38:20.975Z,4.17
2018-08-20T19:41:02.129Z,3.83
2018-08-20T19:43:51.821Z,4.07
2018-08-20T19:46:28.634Z,2.80
2018-08-20T19:49:13.302Z,3.20
2018-08-20T19:51:43.702Z,3.40
2018-08-20T19:54:14.439Z,2.23
2018-08-20T19:56:43.629Z,3.27
2018-08-20T19:59:12.818Z,5.33
2018-08-20T20:01:41.722Z,2.70
2018-08-20T20:04:15.357Z,2.63
2018-08-20T20:06:44.968Z,2.23
2018-08-20T20:09:13.506Z,3.30
2018-08-20T20:11:44.490Z,1.83
2018-08-20T20:14:13.106Z,5.67
2018-08-20T20:16:46.985Z,2.53
2018-08-20T20:19:15.641Z,4.53
2018-08-20T20:21:44.250Z,4.70
2018-08-20T20:24:13.224Z,3.97
2018-08-20T20:26:41.937Z,2.37
2018-08-20T20:29:11.370Z,3.87
2018-08-20T20:31:41.037Z,1.93
2018-08-20T20:34:09.669Z,2.87
2018-08-20T20:36:38.272Z,7.70
2018-08-20T20:39:11.993Z,2.07
2018-08-20T20:41:40.641Z,2.47
2018-08-20T20:44:10.194Z,2.33
2018-08-20T20:46:38.858Z,2.37
2018-08-20T20:49:07.484Z,3.03
2018-08-20T20:51:36.060Z,1.50
2018-08-20T20:54:04.677Z,3.47
2018-08-20T20:56:33.250Z,2.30
2018-08-20T20:59:01.827Z,1.90
2018-08-20T21:01:30.361Z,3.77
2018-08-20T21:03:59.468Z,3.83
2018-08-20T21:06:28.009Z,2.93
2018-08-20T21:08:58.497Z,3.23
2018-08-20T21:11:27.062Z,2.83
2018-08-20T21:13:55.580Z,5.33
2018-08-20T21:16:25.674Z,7.43
2018-08-20T21:18:55.502Z,2.87
2018-08-20T21:21:24.891Z,4.00
2018-08-20T21:23:53.517Z,2.83
2018-08-20T21:26:22.047Z,2.00
2018-08-20T21:28:51.697Z,4.70
2018-08-20T21:31:21.786Z,2.13
2018-08-20T21:33:58.248Z,3.30
2018-08-20T21:36:26.837Z,3.20
2018-08-20T21:38:55.475Z,3.13
2018-08-20T21:41:26.983Z,6.43
2018-08-20T21:43:55.706Z,3.20
2018-08-20T21:46:24.294Z,2.77
2018-08-20T21:48:53.011Z,5.13
2018-08-20T21:51:23.716Z,3.43
2018-08-20T21:53:52.957Z,4.07
2018-08-20T21:56:21.577Z,4.33
2018-08-20T21:58:50.183Z,5.00
2018-08-20T22:01:18.983Z,2.70
2018-08-20T22:03:47.925Z,6.10
2018-08-20T22:06:16.481Z,4.90
2018-08-20T22:08:45.039Z,5.73
2018-08-20T22:11:13.587Z,5.57
2018-08-20T22:13:42.162Z,3.67
2018-08-20T22:16:20.753Z,3.90
2018-08-20T22:18:54.705Z,3.13
2018-08-20T22:21:23.524Z,4.67
2018-08-20T22:23:52.765Z,4.20
2018-08-20T22:26:22.178Z,4.50
2018-08-20T22:28:51.719Z,3.07
2018-08-20T22:31:20.673Z,3.83
2018-08-20T22:33:55.393Z,2.03
2018-08-20T22:36:24.396Z,3.70
2018-08-20T22:38:54.867Z,4.97
2018-08-20T22:41:24.557Z,4.43
2018-08-20T22:43:53.133Z,5.07
2018-08-20T22:46:22.629Z,6.23
2018-08-20T22:48:56.230Z,3.87
2018-08-20T22:51:26.249Z,4.27
2018-08-20T22:53:56.184Z,5.20
2018-08-20T22:56:26.281Z,3.53
2018-08-20T22:59:05.457Z,5.43
2018-08-20T23:01:34.126Z,4.63
2018-08-20T23:04:02.773Z,6.83
2018-08-20T23:06:31.346Z,5.50
2018-08-20T23:09:04.449Z,4.67
2018-08-20T23:11:42.332Z,5.03
2018-08-20T23:14:12.213Z,4.07
2018-08-20T23:16:41.086Z,3.67
2018-08-20T23:19:10.389Z,5.27
2018-08-20T23:21:42.952Z,3.20
2018-08-20T23:24:12.491Z,3.40
2018-08-20T23:26:41.187Z,5.47
2018-08-20T23:29:10.067Z,4.93
2018-08-20T23:31:38.934Z,6.10
2018-08-20T23:34:10.896Z,4.93
2018-08-20T23:36:39.989Z,7.97
2018-08-20T23:39:10.085Z,3.30
2018-08-20T23:41:38.901Z,3.87
2018-08-20T23:44:07.863Z,4.10
2018-08-20T23:46:39.903Z,7.27
2018-08-20T23:49:08.494Z,4.23
2018-08-20T23:51:37.089Z,4.93
2018-08-20T23:54:05.757Z,3.90
2018-08-20T23:56:34.305Z,7.73
2018-08-20T23:59:02.924Z,4.63
